sensor_id;sensor_type;location;lat;lon;timestamp;P1;durP1;ratioP1;P2;durP2;ratioP2
43337;SDS011;28933;52.492;13.434;2024-02-21T00:02:03;16.90;;;6.18;;
43337;SDS011;28933;52.492;13.434;2024-02-21T00:04:49;13.15;;;5.32;;
43337;SDS011;28933;52.492;13.434;2024-02-21T00:07:35;12.98;;;5.25;;
43337;SDS011;28933;52.492;13.434;2024-02-21T00:10:21;10.75;;;5.65;;
43337;SDS011;28933;52.492;13.434;2024-02-21T00:13:07;12.77;;;5.70;;
43337;SDS011;28933;52.492;13.434;2024-02-21T00:15:53;13.23;;;5.68;;
43337;SDS011;28933;52.492;13.434;2024-02-21T00:18:39;13.60;;;5.13;;
43337;SDS011;28933;52.492;13.434;2024-02-21T00:21:25;12.98;;;5.40;;
43337;SDS011;28933;52.492;13.434;2024-02-21T00:24:11;15.82;;;5.78;;
43337;SDS011;28933;52.492;13.434;2024-02-21T00:26:57;15.68;;;6.30;;
43337;SDS011;28933;52.492;13.434;2024-02-21T00:29:43;14.38;;;5.47;;
43337;SDS011;28933;52.492;13.434;2024-02-21T00:32:29;10.95;;;4.65;;
43337;SDS011;28933;52.492;13.434;2024-02-21T00:35:15;15.05;;;5.05;;
43337;SDS011;28933;52.492;13.434;2024-02-21T00:38:01;15.05;;;4.80;;
43337;SDS011;28933;52.492;13.434;2024-02-21T00:40:48;12.35;;;5.28;;
43337;SDS011;28933;52.492;13.434;2024-02-21T00:43:34;13.70;;;5.68;;
43337;SDS011;28933;52.492;13.434;2024-02-21T00:46:20;12.15;;;5.32;;
43337;SDS011;28933;52.492;13.434;2024-02-21T00:49:06;10.50;;;4.70;;
43337;SDS011;28933;52.492;13.434;2024-02-21T00:51:52;11.27;;;5.00;;
43337;SDS011;28933;52.492;13.434;2024-02-21T00:54:38;12.82;;;4.95;;
43337;SDS011;28933;52.492;13.434;2024-02-21T00:57:24;14.23;;;4.93;;
43337;SDS011;28933;52.492;13.434;2024-02-21T01:00:10;11.48;;;4.53;;
43337;SDS011;28933;52.492;13.434;2024-02-21T01:02:56;12.32;;;5.53;;
43337;SDS011;28933;52.492;13.434;2024-02-21T01:05:42;10.32;;;5.32;;
43337;SDS011;28933;52.492;13.434;2024-02-21T01:08:28;11.23;;;4.30;;
43337;SDS011;28933;52.492;13.434;2024-02-21T01:11:14;11.18;;;4.72;;
43337;SDS011;28933;52.492;13.434;2024-02-21T01:14:01;12.02;;;4.95;;
43337;SDS011;28933;52.492;13.434;2024-02-21T01:16:47;8.95;;;4.70;;
43337;SDS011;28933;52.492;13.434;2024-02-21T01:19:32;10.63;;;4.80;;
43337;SDS011;28933;52.492;13.434;2024-02-21T01:22:19;10.93;;;4.57;;
43337;SDS011;28933;52.492;13.434;2024-02-21T01:25:05;13.38;;;4.72;;
43337;SDS011;28933;52.492;13.434;2024-02-21T01:27:51;9.52;;;4.38;;
43337;SDS011;28933;52.492;13.434;2024-02-21T01:30:37;13.85;;;5.38;;
43337;SDS011;28933;52.492;13.434;2024-02-21T01:33:23;12.00;;;4.65;;
43337;SDS011;28933;52.492;13.434;2024-02-21T01:36:09;12.93;;;5.35;;
43337;SDS011;28933;52.492;13.434;2024-02-21T01:38:54;12.82;;;4.50;;
43337;SDS011;28933;52.492;13.434;2024-02-21T01:41:40;9.95;;;4.38;;
43337;SDS011;28933;52.492;13.434;2024-02-21T01:44:26;13.00;;;5.15;;
43337;SDS011;28933;52.492;13.434;2024-02-21T01:47:12;9.80;;;4.53;;
43337;SDS011;28933;52.492;13.434;2024-02-21T01:50:00;11.35;;;4.82;;
43337;SDS011;28933;52.492;13.434;2024-02-21T01:52:47;15.35;;;4.88;;
43337;SDS011;28933;52.492;13.434;2024-02-21T01:55:35;12.95;;;4.65;;
43337;SDS011;28933;52.492;13.434;2024-02-21T01:58:21;16.42;;;5.25;;
43337;SDS011;28933;52.492;13.434;2024-02-21T02:01:08;7.63;;;4.10;;
43337;SDS011;28933;52.492;13.434;2024-02-21T02:03:55;11.60;;;4.50;;
43337;SDS011;28933;52.492;13.434;2024-02-21T02:06:42;10.27;;;4.43;;
43337;SDS011;28933;52.492;13.434;2024-02-21T02:09:28;9.82;;;4.25;;
43337;SDS011;28933;52.492;13.434;2024-02-21T02:12:14;12.27;;;5.25;;
43337;SDS011;28933;52.492;13.434;2024-02-21T02:15:01;9.95;;;4.72;;
43337;SDS011;28933;52.492;13.434;2024-02-21T02:17:50;12.05;;;4.90;;
43337;SDS011;28933;52.492;13.434;2024-02-21T02:20:35;13.52;;;4.80;;
43337;SDS011;28933;52.492;13.434;2024-02-21T02:23:29;12.15;;;4.40;;
43337;SDS011;28933;52.492;13.434;2024-02-21T02:26:16;13.57;;;5.03;;
43337;SDS011;28933;52.492;13.434;2024-02-21T02:29:02;12.77;;;4.93;;
43337;SDS011;28933;52.492;13.434;2024-02-21T02:31:49;8.80;;;4.30;;
43337;SDS011;28933;52.492;13.434;2024-02-21T02:34:35;11.15;;;5.70;;
43337;SDS011;28933;52.492;13.434;2024-02-21T02:37:20;10.80;;;4.50;;
43337;SDS011;28933;52.492;13.434;2024-02-21T02:40:06;17.65;;;5.20;;
43337;SDS011;28933;52.492;13.434;2024-02-21T02:42:53;16.02;;;4.97;;
43337;SDS011;28933;52.492;13.434;2024-02-21T02:45:40;12.25;;;4.90;;
43337;SDS011;28933;52.492;13.434;2024-02-21T02:48:26;10.98;;;5.00;;
43337;SDS011;28933;52.492;13.434;2024-02-21T02:51:12;11.45;;;5.57;;
43337;SDS011;28933;52.492;13.434;2024-02-21T02:53:58;11.60;;;4.55;;
43337;SDS011;28933;52.492;13.434;2024-02-21T02:56:44;10.13;;;4.45;;
43337;SDS011;28933;52.492;13.434;2024-02-21T02:59:30;13.75;;;5.78;;
43337;SDS011;28933;52.492;13.434;2024-02-21T03:02:16;10.68;;;4.57;;
43337;SDS011;28933;52.492;13.434;2024-02-21T03:05:03;11.27;;;4.93;;
43337;SDS011;28933;52.492;13.434;2024-02-21T03:08:00;8.65;;;4.63;;
43337;SDS011;28933;52.492;13.434;2024-02-21T03:10:46;10.13;;;4.75;;
43337;SDS011;28933;52.492;13.434;2024-02-21T03:13:32;9.25;;;4.55;;
43337;SDS011;28933;52.492;13.434;2024-02-21T03:16:18;11.35;;;5.40;;
43337;SDS011;28933;52.492;13.434;2024-02-21T03:19:04;11.13;;;4.47;;
43337;SDS011;28933;52.492;13.434;2024-02-21T03:21:50;14.90;;;5.18;;
43337;SDS011;28933;52.492;13.434;2024-02-21T03:24:36;11.98;;;5.13;;
43337;SDS011;28933;52.492;13.434;2024-02-21T03:27:22;12.77;;;4.38;;
43337;SDS011;28933;52.492;13.434;2024-02-21T03:30:08;11.75;;;5.13;;
43337;SDS011;28933;52.492;13.434;2024-02-21T03:32:55;14.60;;;4.80;;
43337;SDS011;28933;52.492;13.434;2024-02-21T03:35:40;10.05;;;5.15;;
43337;SDS011;28933;52.492;13.434;2024-02-21T03:38:26;15.40;;;6.57;;
43337;SDS011;28933;52.492;13.434;2024-02-21T03:41:12;8.35;;;4.97;;
43337;SDS011;28933;52.492;13.434;2024-02-21T03:43:58;13.07;;;5.00;;
43337;SDS011;28933;52.492;13.434;2024-02-21T03:46:44;12.45;;;5.40;;
43337;SDS011;28933;52.492;13.434;2024-02-21T03:49:30;12.05;;;5.47;;
43337;SDS011;28933;52.492;13.434;2024-02-21T03:52:16;13.43;;;5.03;;
43337;SDS011;28933;52.492;13.434;2024-02-21T03:55:02;14.27;;;5.60;;
43337;SDS011;28933;52.492;13.434;2024-02-21T03:57:49;9.45;;;4.95;;
43337;SDS011;28933;52.492;13.434;2024-02-21T04:00:35;11.55;;;5.05;;
43337;SDS011;28933;52.492;13.434;2024-02-21T04:03:21;7.97;;;4.75;;
43337;SDS011;28933;52.492;13.434;2024-02-21T04:06:07;8.93;;;4.82;;
43337;SDS011;28933;52.492;13.434;2024-02-21T04:08:53;10.15;;;5.15;;
43337;SDS011;28933;52.492;13.434;2024-02-21T04:11:39;8.85;;;5.07;;
43337;SDS011;28933;52.492;13.434;2024-02-21T04:14:25;12.30;;;5.28;;
43337;SDS011;28933;52.492;13.434;2024-02-21T04:17:11;10.25;;;4.82;;
43337;SDS011;28933;52.492;13.434;2024-02-21T04:20:01;12.50;;;5.28;;
43337;SDS011;28933;52.492;13.434;2024-02-21T04:22:53;10.15;;;4.97;;
43337;SDS011;28933;52.492;13.434;2024-02-21T04:25:39;10.82;;;5.88;;
43337;SDS011;28933;52.492;13.434;2024-02-21T04:28:25;11.02;;;5.15;;
43337;SDS011;28933;52.492;13.434;2024-02-21T04:31:11;8.20;;;4.82;;
43337;SDS011;28933;52.492;13.434;2024-02-21T04:33:57;15.85;;;6.03;;
43337;SDS011;28933;52.492;13.434;2024-02-21T04:36:43;11.93;;;5.28;;
43337;SDS011;28933;52.492;13.434;2024-02-21T04:39:29;10.98;;;5.28;;
43337;SDS011;28933;52.492;13.434;2024-02-21T04:42:15;14.65;;;5.43;;
43337;SDS011;28933;52.492;13.434;2024-02-21T04:45:01;9.00;;;4.70;;
43337;SDS011;28933;52.492;13.434;2024-02-21T04:47:47;10.15;;;5.25;;
43337;SDS011;28933;52.492;13.434;2024-02-21T04:50:33;13.27;;;5.88;;
43337;SDS011;28933;52.492;13.434;2024-02-21T04:53:19;14.35;;;4.53;;
43337;SDS011;28933;52.492;13.434;2024-02-21T04:56:05;9.85;;;5.25;;
43337;SDS011;28933;52.492;13.434;2024-02-21T04:58:51;18.52;;;6.82;;
43337;SDS011;28933;52.492;13.434;2024-02-21T05:01:37;11.80;;;5.88;;
43337;SDS011;28933;52.492;13.434;2024-02-21T05:04:23;9.88;;;4.97;;
43337;SDS011;28933;52.492;13.434;2024-02-21T05:07:08;14.93;;;5.60;;
43337;SDS011;28933;52.492;13.434;2024-02-21T05:09:56;13.32;;;5.57;;
43337;SDS011;28933;52.492;13.434;2024-02-21T05:12:42;9.55;;;5.05;;
43337;SDS011;28933;52.492;13.434;2024-02-21T05:15:28;14.23;;;6.50;;
43337;SDS011;28933;52.492;13.434;2024-02-21T05:18:14;12.52;;;6.07;;
43337;SDS011;28933;52.492;13.434;2024-02-21T05:21:00;10.68;;;5.00;;
43337;SDS011;28933;52.492;13.434;2024-02-21T05:23:46;9.60;;;5.28;;
43337;SDS011;28933;52.492;13.434;2024-02-21T05:26:32;15.65;;;6.05;;
43337;SDS011;28933;52.492;13.434;2024-02-21T05:29:18;15.15;;;6.07;;
43337;SDS011;28933;52.492;13.434;2024-02-21T05:32:04;14.02;;;5.78;;
43337;SDS011;28933;52.492;13.434;2024-02-21T05:34:50;12.10;;;6.18;;
43337;SDS011;28933;52.492;13.434;2024-02-21T05:37:36;10.23;;;5.75;;
43337;SDS011;28933;52.492;13.434;2024-02-21T05:40:22;17.35;;;6.50;;
43337;SDS011;28933;52.492;13.434;2024-02-21T05:43:08;13.70;;;5.75;;
43337;SDS011;28933;52.492;13.434;2024-02-21T05:45:54;11.68;;;6.10;;
43337;SDS011;28933;52.492;13.434;2024-02-21T05:48:41;11.02;;;5.35;;
43337;SDS011;28933;52.492;13.434;2024-02-21T05:51:27;13.40;;;5.55;;
43337;SDS011;28933;52.492;13.434;2024-02-21T05:54:12;15.32;;;5.80;;
43337;SDS011;28933;52.492;13.434;2024-02-21T05:56:58;12.23;;;6.60;;
43337;SDS011;28933;52.492;13.434;2024-02-21T05:59:44;11.85;;;5.28;;
43337;SDS011;28933;52.492;13.434;2024-02-21T06:02:30;8.63;;;5.43;;
43337;SDS011;28933;52.492;13.434;2024-02-21T06:05:16;11.70;;;5.65;;
43337;SDS011;28933;52.492;13.434;2024-02-21T06:08:02;13.05;;;6.25;;
43337;SDS011;28933;52.492;13.434;2024-02-21T06:10:48;12.93;;;6.15;;
43337;SDS011;28933;52.492;13.434;2024-02-21T06:13:40;12.65;;;5.57;;
43337;SDS011;28933;52.492;13.434;2024-02-21T06:16:26;12.82;;;5.72;;
43337;SDS011;28933;52.492;13.434;2024-02-21T06:19:12;18.33;;;6.35;;
43337;SDS011;28933;52.492;13.434;2024-02-21T06:21:57;10.77;;;5.45;;
43337;SDS011;28933;52.492;13.434;2024-02-21T06:24:43;15.55;;;7.38;;
43337;SDS011;28933;52.492;13.434;2024-02-21T06:27:29;11.88;;;6.05;;
43337;SDS011;28933;52.492;13.434;2024-02-21T06:30:15;9.77;;;5.97;;
43337;SDS011;28933;52.492;13.434;2024-02-21T06:33:01;12.95;;;6.35;;
43337;SDS011;28933;52.492;13.434;2024-02-21T06:35:48;13.77;;;5.82;;
43337;SDS011;28933;52.492;13.434;2024-02-21T06:38:34;11.57;;;6.28;;
43337;SDS011;28933;52.492;13.434;2024-02-21T06:41:20;11.98;;;5.95;;
43337;SDS011;28933;52.492;13.434;2024-02-21T06:44:06;14.52;;;5.93;;
43337;SDS011;28933;52.492;13.434;2024-02-21T06:46:52;10.07;;;5.22;;
43337;SDS011;28933;52.492;13.434;2024-02-21T06:49:39;14.35;;;6.82;;
43337;SDS011;28933;52.492;13.434;2024-02-21T06:52:27;15.73;;;7.65;;
43337;SDS011;28933;52.492;13.434;2024-02-21T06:55:13;16.30;;;6.05;;
43337;SDS011;28933;52.492;13.434;2024-02-21T06:57:59;8.05;;;5.70;;
43337;SDS011;28933;52.492;13.434;2024-02-21T07:00:44;14.63;;;5.88;;
43337;SDS011;28933;52.492;13.434;2024-02-21T07:03:30;14.93;;;6.07;;
43337;SDS011;28933;52.492;13.434;2024-02-21T07:06:16;10.77;;;5.50;;
43337;SDS011;28933;52.492;13.434;2024-02-21T07:09:02;12.40;;;6.43;;
43337;SDS011;28933;52.492;13.434;2024-02-21T07:11:48;12.70;;;5.97;;
43337;SDS011;28933;52.492;13.434;2024-02-21T07:14:35;13.05;;;5.88;;
43337;SDS011;28933;52.492;13.434;2024-02-21T07:17:21;12.85;;;6.20;;
43337;SDS011;28933;52.492;13.434;2024-02-21T07:20:07;11.48;;;5.97;;
43337;SDS011;28933;52.492;13.434;2024-02-21T07:22:54;12.88;;;6.30;;
43337;SDS011;28933;52.492;13.434;2024-02-21T07:25:40;11.55;;;6.55;;
43337;SDS011;28933;52.492;13.434;2024-02-21T07:28:26;14.30;;;6.13;;
43337;SDS011;28933;52.492;13.434;2024-02-21T07:31:11;12.90;;;6.50;;
43337;SDS011;28933;52.492;13.434;2024-02-21T07:33:57;12.45;;;5.68;;
43337;SDS011;28933;52.492;13.434;2024-02-21T07:36:44;11.57;;;6.07;;
43337;SDS011;28933;52.492;13.434;2024-02-21T07:39:30;12.15;;;5.30;;
43337;SDS011;28933;52.492;13.434;2024-02-21T07:42:16;13.65;;;6.47;;
43337;SDS011;28933;52.492;13.434;2024-02-21T07:45:02;11.18;;;5.85;;
43337;SDS011;28933;52.492;13.434;2024-02-21T07:47:49;13.77;;;6.60;;
43337;SDS011;28933;52.492;13.434;2024-02-21T07:50:35;13.52;;;5.82;;
43337;SDS011;28933;52.492;13.434;2024-02-21T07:53:21;8.70;;;5.05;;
43337;SDS011;28933;52.492;13.434;2024-02-21T07:56:07;13.98;;;5.53;;
43337;SDS011;28933;52.492;13.434;2024-02-21T07:58:53;10.88;;;5.57;;
43337;SDS011;28933;52.492;13.434;2024-02-21T08:01:39;10.38;;;5.82;;
43337;SDS011;28933;52.492;13.434;2024-02-21T08:04:25;15.15;;;6.93;;
43337;SDS011;28933;52.492;13.434;2024-02-21T08:07:11;10.43;;;5.70;;
43337;SDS011;28933;52.492;13.434;2024-02-21T08:09:57;10.70;;;5.78;;
43337;SDS011;28933;52.492;13.434;2024-02-21T08:12:43;13.60;;;6.47;;
43337;SDS011;28933;52.492;13.434;2024-02-21T08:15:29;10.40;;;5.68;;
43337;SDS011;28933;52.492;13.434;2024-02-21T08:18:15;15.77;;;6.93;;
43337;SDS011;28933;52.492;13.434;2024-02-21T08:21:01;11.73;;;6.32;;
43337;SDS011;28933;52.492;13.434;2024-02-21T08:23:46;12.73;;;6.13;;
43337;SDS011;28933;52.492;13.434;2024-02-21T08:26:39;13.88;;;6.00;;
43337;SDS011;28933;52.492;13.434;2024-02-21T08:29:26;11.30;;;5.68;;
43337;SDS011;28933;52.492;13.434;2024-02-21T08:32:12;13.40;;;5.85;;
43337;SDS011;28933;52.492;13.434;2024-02-21T08:34:58;15.50;;;7.35;;
43337;SDS011;28933;52.492;13.434;2024-02-21T08:37:44;11.70;;;6.35;;
43337;SDS011;28933;52.492;13.434;2024-02-21T08:40:33;12.32;;;6.80;;
43337;SDS011;28933;52.492;13.434;2024-02-21T08:43:20;15.27;;;6.70;;
43337;SDS011;28933;52.492;13.434;2024-02-21T08:46:06;11.00;;;5.88;;
43337;SDS011;28933;52.492;13.434;2024-02-21T08:48:52;13.63;;;6.72;;
43337;SDS011;28933;52.492;13.434;2024-02-21T08:51:39;14.30;;;6.32;;
43337;SDS011;28933;52.492;13.434;2024-02-21T08:54:25;18.13;;;7.63;;
43337;SDS011;28933;52.492;13.434;2024-02-21T08:57:10;12.90;;;6.55;;
43337;SDS011;28933;52.492;13.434;2024-02-21T08:59:59;16.02;;;7.57;;
43337;SDS011;28933;52.492;13.434;2024-02-21T09:02:45;12.73;;;6.30;;
43337;SDS011;28933;52.492;13.434;2024-02-21T09:05:31;15.00;;;6.75;;
43337;SDS011;28933;52.492;13.434;2024-02-21T09:08:17;12.98;;;8.05;;
43337;SDS011;28933;52.492;13.434;2024-02-21T09:11:05;14.43;;;7.47;;
43337;SDS011;28933;52.492;13.434;2024-02-21T09:13:51;11.73;;;7.07;;
43337;SDS011;28933;52.492;13.434;2024-02-21T09:16:37;13.77;;;7.13;;
43337;SDS011;28933;52.492;13.434;2024-02-21T09:19:23;13.10;;;7.03;;
43337;SDS011;28933;52.492;13.434;2024-02-21T09:22:09;13.32;;;7.10;;
43337;SDS011;28933;52.492;13.434;2024-02-21T09:24:55;14.55;;;7.47;;
43337;SDS011;28933;52.492;13.434;2024-02-21T09:27:43;15.60;;;8.05;;
43337;SDS011;28933;52.492;13.434;2024-02-21T09:30:30;15.02;;;7.63;;
43337;SDS011;28933;52.492;13.434;2024-02-21T09:33:16;12.20;;;7.07;;
43337;SDS011;28933;52.492;13.434;2024-02-21T09:36:02;12.23;;;7.43;;
43337;SDS011;28933;52.492;13.434;2024-02-21T09:38:50;12.10;;;7.13;;
43337;SDS011;28933;52.492;13.434;2024-02-21T09:41:36;13.07;;;7.38;;
43337;SDS011;28933;52.492;13.434;2024-02-21T09:44:33;15.05;;;7.93;;
43337;SDS011;28933;52.492;13.434;2024-02-21T09:47:24;15.15;;;7.10;;
43337;SDS011;28933;52.492;13.434;2024-02-21T09:50:26;14.50;;;7.07;;
43337;SDS011;28933;52.492;13.434;2024-02-21T09:53:14;12.80;;;7.32;;
43337;SDS011;28933;52.492;13.434;2024-02-21T09:56:00;17.75;;;7.80;;
43337;SDS011;28933;52.492;13.434;2024-02-21T09:58:46;14.05;;;8.00;;
43337;SDS011;28933;52.492;13.434;2024-02-21T10:01:32;19.75;;;7.10;;
43337;SDS011;28933;52.492;13.434;2024-02-21T10:04:19;12.48;;;6.97;;
43337;SDS011;28933;52.492;13.434;2024-02-21T10:07:05;17.05;;;8.23;;
43337;SDS011;28933;52.492;13.434;2024-02-21T10:10:02;10.10;;;6.18;;
43337;SDS011;28933;52.492;13.434;2024-02-21T10:12:49;8.38;;;5.85;;
43337;SDS011;28933;52.492;13.434;2024-02-21T10:15:36;10.90;;;6.95;;
43337;SDS011;28933;52.492;13.434;2024-02-21T10:18:21;15.75;;;7.22;;
43337;SDS011;28933;52.492;13.434;2024-02-21T10:21:08;17.00;;;7.40;;
43337;SDS011;28933;52.492;13.434;2024-02-21T10:23:54;10.65;;;6.55;;
43337;SDS011;28933;52.492;13.434;2024-02-21T10:26:40;13.45;;;6.85;;
43337;SDS011;28933;52.492;13.434;2024-02-21T10:29:26;11.27;;;6.43;;
43337;SDS011;28933;52.492;13.434;2024-02-21T10:32:12;13.57;;;6.55;;
43337;SDS011;28933;52.492;13.434;2024-02-21T10:35:02;13.40;;;7.15;;
43337;SDS011;28933;52.492;13.434;2024-02-21T10:37:52;11.00;;;6.35;;
43337;SDS011;28933;52.492;13.434;2024-02-21T10:40:41;12.32;;;6.82;;
43337;SDS011;28933;52.492;13.434;2024-02-21T10:43:27;11.68;;;6.40;;
43337;SDS011;28933;52.492;13.434;2024-02-21T10:46:14;9.00;;;6.00;;
43337;SDS011;28933;52.492;13.434;2024-02-21T10:49:10;12.55;;;6.97;;
43337;SDS011;28933;52.492;13.434;2024-02-21T10:55:03;14.52;;;6.50;;
43337;SDS011;28933;52.492;13.434;2024-02-21T10:57:54;7.78;;;5.32;;
43337;SDS011;28933;52.492;13.434;2024-02-21T11:00:42;9.82;;;6.25;;
43337;SDS011;28933;52.492;13.434;2024-02-21T11:03:28;13.55;;;6.20;;
43337;SDS011;28933;52.492;13.434;2024-02-21T11:06:15;11.27;;;6.90;;
43337;SDS011;28933;52.492;13.434;2024-02-21T11:09:03;8.68;;;5.45;;
43337;SDS011;28933;52.492;13.434;2024-02-21T11:11:53;9.45;;;5.35;;
43337;SDS011;28933;52.492;13.434;2024-02-21T11:14:41;8.73;;;5.90;;
43337;SDS011;28933;52.492;13.434;2024-02-21T11:17:27;10.48;;;5.75;;
43337;SDS011;28933;52.492;13.434;2024-02-21T11:20:14;10.52;;;5.95;;
43337;SDS011;28933;52.492;13.434;2024-02-21T11:23:00;9.27;;;5.65;;
43337;SDS011;28933;52.492;13.434;2024-02-21T11:25:46;8.52;;;5.45;;
43337;SDS011;28933;52.492;13.434;2024-02-21T11:28:32;9.25;;;5.57;;
43337;SDS011;28933;52.492;13.434;2024-02-21T11:31:18;9.93;;;5.60;;
43337;SDS011;28933;52.492;13.434;2024-02-21T11:34:04;8.85;;;5.68;;
43337;SDS011;28933;52.492;13.434;2024-02-21T11:36:51;7.93;;;5.75;;
43337;SDS011;28933;52.492;13.434;2024-02-21T11:39:37;8.30;;;5.15;;
43337;SDS011;28933;52.492;13.434;2024-02-21T11:42:27;10.15;;;4.95;;
43337;SDS011;28933;52.492;13.434;2024-02-21T11:45:15;6.22;;;4.47;;
43337;SDS011;28933;52.492;13.434;2024-02-21T11:48:01;10.32;;;4.80;;
43337;SDS011;28933;52.492;13.434;2024-02-21T11:50:52;9.38;;;5.05;;
43337;SDS011;28933;52.492;13.434;2024-02-21T11:53:40;7.18;;;4.68;;
43337;SDS011;28933;52.492;13.434;2024-02-21T11:56:26;6.95;;;4.38;;
43337;SDS011;28933;52.492;13.434;2024-02-21T11:59:12;9.52;;;5.10;;
43337;SDS011;28933;52.492;13.434;2024-02-21T12:01:58;7.05;;;4.10;;
43337;SDS011;28933;52.492;13.434;2024-02-21T12:04:45;7.90;;;4.65;;
43337;SDS011;28933;52.492;13.434;2024-02-21T12:07:32;8.55;;;4.43;;
43337;SDS011;28933;52.492;13.434;2024-02-21T12:10:18;9.32;;;4.28;;
43337;SDS011;28933;52.492;13.434;2024-02-21T12:13:06;6.43;;;4.00;;
43337;SDS011;28933;52.492;13.434;2024-02-21T12:15:55;6.07;;;4.25;;
43337;SDS011;28933;52.492;13.434;2024-02-21T12:18:41;10.38;;;5.03;;
43337;SDS011;28933;52.492;13.434;2024-02-21T12:21:29;7.63;;;4.13;;
43337;SDS011;28933;52.492;13.434;2024-02-21T12:24:21;8.18;;;4.10;;
43337;SDS011;28933;52.492;13.434;2024-02-21T12:27:08;5.68;;;4.00;;
43337;SDS011;28933;52.492;13.434;2024-02-21T12:29:54;7.10;;;3.88;;
43337;SDS011;28933;52.492;13.434;2024-02-21T12:32:40;6.82;;;3.95;;
43337;SDS011;28933;52.492;13.434;2024-02-21T12:35:26;9.68;;;3.45;;
43337;SDS011;28933;52.492;13.434;2024-02-21T12:38:12;7.25;;;4.05;;
43337;SDS011;28933;52.492;13.434;2024-02-21T12:40:59;7.82;;;3.50;;
43337;SDS011;28933;52.492;13.434;2024-02-21T12:43:45;5.47;;;3.63;;
43337;SDS011;28933;52.492;13.434;2024-02-21T12:46:33;5.07;;;3.63;;
43337;SDS011;28933;52.492;13.434;2024-02-21T12:49:19;7.53;;;3.75;;
43337;SDS011;28933;52.492;13.434;2024-02-21T12:52:05;5.30;;;3.65;;
43337;SDS011;28933;52.492;13.434;2024-02-21T12:54:51;9.20;;;3.17;;
43337;SDS011;28933;52.492;13.434;2024-02-21T15:13:02;6.75;;;4.35;;
43337;SDS011;28933;52.492;13.434;2024-02-21T15:15:49;8.32;;;4.18;;
43337;SDS011;28933;52.492;13.434;2024-02-21T15:18:36;8.95;;;4.55;;
43337;SDS011;28933;52.492;13.434;2024-02-21T15:21:23;13.25;;;5.22;;
43337;SDS011;28933;52.492;13.434;2024-02-21T15:45:44;10.20;;;5.20;;
43337;SDS011;28933;52.492;13.434;2024-02-21T15:48:30;7.22;;;3.60;;
43337;SDS011;28933;52.492;13.434;2024-02-21T15:51:20;9.90;;;4.47;;
43337;SDS011;28933;52.492;13.434;2024-02-21T15:54:08;7.15;;;3.55;;
43337;SDS011;28933;52.492;13.434;2024-02-21T15:56:54;8.40;;;4.32;;
43337;SDS011;28933;52.492;13.434;2024-02-21T15:59:41;8.23;;;4.53;;
43337;SDS011;28933;52.492;13.434;2024-02-21T16:02:27;9.52;;;4.32;;
43337;SDS011;28933;52.492;13.434;2024-02-21T16:05:13;8.60;;;4.28;;
43337;SDS011;28933;52.492;13.434;2024-02-21T16:07:59;8.30;;;3.95;;
43337;SDS011;28933;52.492;13.434;2024-02-21T16:10:45;8.57;;;4.40;;
43337;SDS011;28933;52.492;13.434;2024-02-21T16:13:31;7.53;;;4.18;;
43337;SDS011;28933;52.492;13.434;2024-02-21T16:16:17;11.27;;;5.55;;
43337;SDS011;28933;52.492;13.434;2024-02-21T16:19:04;10.02;;;4.68;;
43337;SDS011;28933;52.492;13.434;2024-02-21T16:21:50;9.75;;;4.85;;
43337;SDS011;28933;52.492;13.434;2024-02-21T16:24:36;11.07;;;4.70;;
43337;SDS011;28933;52.492;13.434;2024-02-21T16:27:22;8.10;;;4.38;;
43337;SDS011;28933;52.492;13.434;2024-02-21T16:30:08;10.15;;;5.43;;
43337;SDS011;28933;52.492;13.434;2024-02-21T16:32:54;8.73;;;5.07;;
43337;SDS011;28933;52.492;13.434;2024-02-21T16:35:41;10.25;;;5.10;;
43337;SDS011;28933;52.492;13.434;2024-02-21T16:38:27;9.05;;;5.05;;
43337;SDS011;28933;52.492;13.434;2024-02-21T16:41:13;7.78;;;4.78;;
43337;SDS011;28933;52.492;13.434;2024-02-21T16:43:59;12.05;;;5.80;;
43337;SDS011;28933;52.492;13.434;2024-02-21T16:46:45;8.95;;;5.88;;
43337;SDS011;28933;52.492;13.434;2024-02-21T16:49:31;9.93;;;5.35;;
43337;SDS011;28933;52.492;13.434;2024-02-21T16:52:17;8.20;;;5.03;;
43337;SDS011;28933;52.492;13.434;2024-02-21T16:55:04;11.55;;;5.22;;
43337;SDS011;28933;52.492;13.434;2024-02-21T16:57:51;12.48;;;5.53;;
43337;SDS011;28933;52.492;13.434;2024-02-21T17:00:37;8.30;;;4.72;;
43337;SDS011;28933;52.492;13.434;2024-02-21T17:03:24;10.27;;;4.57;;
43337;SDS011;28933;52.492;13.434;2024-02-21T17:06:11;9.57;;;4.68;;
43337;SDS011;28933;52.492;13.434;2024-02-21T17:08:58;9.05;;;4.60;;
43337;SDS011;28933;52.492;13.434;2024-02-21T17:11:46;8.68;;;4.38;;
43337;SDS011;28933;52.492;13.434;2024-02-21T17:14:32;11.40;;;4.78;;
43337;SDS011;28933;52.492;13.434;2024-02-21T17:17:18;8.73;;;4.18;;
43337;SDS011;28933;52.492;13.434;2024-02-21T17:20:05;10.52;;;4.43;;
43337;SDS011;28933;52.492;13.434;2024-02-21T17:22:51;9.32;;;4.35;;
43337;SDS011;28933;52.492;13.434;2024-02-21T17:25:37;9.90;;;4.32;;
43337;SDS011;28933;52.492;13.434;2024-02-21T17:28:23;9.32;;;5.05;;
43337;SDS011;28933;52.492;13.434;2024-02-21T17:31:09;12.48;;;5.10;;
43337;SDS011;28933;52.492;13.434;2024-02-21T17:33:55;7.82;;;4.93;;
43337;SDS011;28933;52.492;13.434;2024-02-21T17:36:41;7.60;;;4.93;;
43337;SDS011;28933;52.492;13.434;2024-02-21T17:39:27;10.07;;;4.50;;
43337;SDS011;28933;52.492;13.434;2024-02-21T17:42:13;8.60;;;4.43;;
43337;SDS011;28933;52.492;13.434;2024-02-21T17:44:59;11.00;;;4.57;;
43337;SDS011;28933;52.492;13.434;2024-02-21T17:47:45;7.38;;;4.50;;
43337;SDS011;28933;52.492;13.434;2024-02-21T17:50:32;8.90;;;5.30;;
43337;SDS011;28933;52.492;13.434;2024-02-21T17:53:18;10.25;;;5.28;;
43337;SDS011;28933;52.492;13.434;2024-02-21T17:56:04;8.13;;;4.68;;
43337;SDS011;28933;52.492;13.434;2024-02-21T17:58:50;8.82;;;5.90;;
43337;SDS011;28933;52.492;13.434;2024-02-21T18:01:36;10.18;;;4.60;;
43337;SDS011;28933;52.492;13.434;2024-02-21T18:04:23;9.73;;;5.13;;
43337;SDS011;28933;52.492;13.434;2024-02-21T18:07:09;8.43;;;5.38;;
43337;SDS011;28933;52.492;13.434;2024-02-21T18:09:55;8.43;;;4.88;;
43337;SDS011;28933;52.492;13.434;2024-02-21T18:12:41;8.30;;;5.00;;
43337;SDS011;28933;52.492;13.434;2024-02-21T18:15:27;10.23;;;4.63;;
43337;SDS011;28933;52.492;13.434;2024-02-21T18:18:13;7.30;;;4.53;;
43337;SDS011;28933;52.492;13.434;2024-02-21T18:20:59;11.10;;;5.28;;
43337;SDS011;28933;52.492;13.434;2024-02-21T18:23:45;10.70;;;4.90;;
43337;SDS011;28933;52.492;13.434;2024-02-21T18:26:31;11.20;;;4.72;;
43337;SDS011;28933;52.492;13.434;2024-02-21T18:29:17;7.85;;;5.03;;
43337;SDS011;28933;52.492;13.434;2024-02-21T18:32:04;10.70;;;5.53;;
43337;SDS011;28933;52.492;13.434;2024-02-21T18:34:50;10.57;;;5.28;;
43337;SDS011;28933;52.492;13.434;2024-02-21T18:37:36;13.55;;;5.25;;
43337;SDS011;28933;52.492;13.434;2024-02-21T18:40:22;6.95;;;5.30;;
43337;SDS011;28933;52.492;13.434;2024-02-21T18:43:08;8.45;;;5.38;;
43337;SDS011;28933;52.492;13.434;2024-02-21T18:45:54;8.32;;;5.00;;
43337;SDS011;28933;52.492;13.434;2024-02-21T18:48:41;11.57;;;5.30;;
43337;SDS011;28933;52.492;13.434;2024-02-21T18:51:31;9.10;;;5.20;;
43337;SDS011;28933;52.492;13.434;2024-02-21T18:54:17;8.20;;;4.72;;
43337;SDS011;28933;52.492;13.434;2024-02-21T18:57:03;9.43;;;4.82;;
43337;SDS011;28933;52.492;13.434;2024-02-21T18:59:49;11.10;;;5.68;;